sensor_id;sensor_type;location;lat;lon;timestamp;P1;durP1;ratioP1;P2;durP2;ratioP2
51560;SDS011;37654;51.262;17.058;2023-05-07T00:00:09;14.95;;;6.80;;
51560;SDS011;37654;51.262;17.058;2023-05-07T00:02:36;11.27;;;6.90;;
51560;SDS011;37654;51.262;17.058;2023-05-07T00:05:02;9.65;;;7.72;;
51560;SDS011;37654;51.262;17.058;2023-05-07T00:07:28;14.10;;;8.02;;
51560;SDS011;37654;51.262;17.058;2023-05-07T00:09:54;12.13;;;7.10;;
51560;SDS011;37654;51.262;17.058;2023-05-07T00:12:19;14.98;;;8.77;;
51560;SDS011;37654;51.262;17.058;2023-05-07T00:14:45;11.82;;;7.32;;
51560;SDS011;37654;51.262;17.058;2023-05-07T00:17:10;13.35;;;7.35;;
51560;SDS011;37654;51.262;17.058;2023-05-07T00:19:36;18.80;;;8.13;;
51560;SDS011;37654;51.262;17.058;2023-05-07T00:22:01;12.10;;;8.07;;
51560;SDS011;37654;51.262;17.058;2023-05-07T00:24:27;11.70;;;7.65;;
51560;SDS011;37654;51.262;17.058;2023-05-07T00:26:52;12.23;;;8.18;;
51560;SDS011;37654;51.262;17.058;2023-05-07T00:29:18;11.75;;;7.95;;
51560;SDS011;37654;51.262;17.058;2023-05-07T00:31:43;13.15;;;8.02;;
51560;SDS011;37654;51.262;17.058;2023-05-07T00:34:09;13.48;;;8.88;;
51560;SDS011;37654;51.262;17.058;2023-05-07T00:36:34;11.10;;;8.27;;
51560;SDS011;37654;51.262;17.058;2023-05-07T00:39:00;12.55;;;7.97;;
51560;SDS011;37654;51.262;17.058;2023-05-07T00:41:28;15.35;;;9.68;;
51560;SDS011;37654;51.262;17.058;2023-05-07T00:43:54;17.33;;;10.50;;
51560;SDS011;37654;51.262;17.058;2023-05-07T00:46:20;14.48;;;9.38;;
51560;SDS011;37654;51.262;17.058;2023-05-07T00:48:46;14.25;;;8.77;;
51560;SDS011;37654;51.262;17.058;2023-05-07T00:51:12;11.43;;;8.75;;
51560;SDS011;37654;51.262;17.058;2023-05-07T00:53:38;12.15;;;8.75;;
51560;SDS011;37654;51.262;17.058;2023-05-07T00:56:04;14.68;;;9.30;;
51560;SDS011;37654;51.262;17.058;2023-05-07T00:58:31;13.10;;;9.05;;
51560;SDS011;37654;51.262;17.058;2023-05-07T01:00:58;13.30;;;8.68;;
51560;SDS011;37654;51.262;17.058;2023-05-07T01:03:23;11.52;;;8.30;;
51560;SDS011;37654;51.262;17.058;2023-05-07T01:05:49;11.82;;;8.65;;
51560;SDS011;37654;51.262;17.058;2023-05-07T01:08:15;14.38;;;8.65;;
51560;SDS011;37654;51.262;17.058;2023-05-07T01:10:42;13.90;;;9.90;;
51560;SDS011;37654;51.262;17.058;2023-05-07T01:13:09;15.18;;;10.15;;
51560;SDS011;37654;51.262;17.058;2023-05-07T01:15:35;15.18;;;9.68;;
51560;SDS011;37654;51.262;17.058;2023-05-07T01:18:01;15.13;;;9.82;;
51560;SDS011;37654;51.262;17.058;2023-05-07T01:20:27;14.35;;;9.48;;
51560;SDS011;37654;51.262;17.058;2023-05-07T01:22:53;14.77;;;9.35;;
51560;SDS011;37654;51.262;17.058;2023-05-07T01:25:20;20.42;;;9.68;;
51560;SDS011;37654;51.262;17.058;2023-05-07T01:27:45;18.48;;;10.30;;
51560;SDS011;37654;51.262;17.058;2023-05-07T01:30:11;16.30;;;9.95;;
51560;SDS011;37654;51.262;17.058;2023-05-07T01:32:42;17.90;;;10.48;;
51560;SDS011;37654;51.262;17.058;2023-05-07T01:35:14;21.77;;;10.57;;
51560;SDS011;37654;51.262;17.058;2023-05-07T01:37:43;16.95;;;10.40;;
51560;SDS011;37654;51.262;17.058;2023-05-07T01:40:10;17.20;;;10.57;;
51560;SDS011;37654;51.262;17.058;2023-05-07T01:42:36;17.77;;;10.63;;
51560;SDS011;37654;51.262;17.058;2023-05-07T01:45:01;17.98;;;11.10;;
51560;SDS011;37654;51.262;17.058;2023-05-07T01:47:27;17.48;;;10.55;;
51560;SDS011;37654;51.262;17.058;2023-05-07T01:49:54;18.23;;;10.98;;
51560;SDS011;37654;51.262;17.058;2023-05-07T01:52:20;18.40;;;10.60;;
51560;SDS011;37654;51.262;17.058;2023-05-07T01:54:45;16.63;;;11.38;;
51560;SDS011;37654;51.262;17.058;2023-05-07T01:57:11;18.73;;;11.10;;
51560;SDS011;37654;51.262;17.058;2023-05-07T01:59:36;16.25;;;10.00;;
51560;SDS011;37654;51.262;17.058;2023-05-07T02:02:02;23.45;;;10.73;;
51560;SDS011;37654;51.262;17.058;2023-05-07T02:04:27;20.27;;;10.10;;
51560;SDS011;37654;51.262;17.058;2023-05-07T02:06:52;21.23;;;10.48;;
51560;SDS011;37654;51.262;17.058;2023-05-07T02:09:18;17.38;;;10.70;;
51560;SDS011;37654;51.262;17.058;2023-05-07T02:11:44;17.48;;;10.43;;
51560;SDS011;37654;51.262;17.058;2023-05-07T02:14:09;15.68;;;10.55;;
51560;SDS011;37654;51.262;17.058;2023-05-07T02:16:35;13.38;;;9.27;;
51560;SDS011;37654;51.262;17.058;2023-05-07T02:19:00;17.67;;;9.85;;
51560;SDS011;37654;51.262;17.058;2023-05-07T02:21:26;15.73;;;10.07;;
51560;SDS011;37654;51.262;17.058;2023-05-07T02:23:51;16.52;;;10.48;;
51560;SDS011;37654;51.262;17.058;2023-05-07T02:26:16;15.15;;;9.35;;
51560;SDS011;37654;51.262;17.058;2023-05-07T02:28:42;18.92;;;9.43;;
51560;SDS011;37654;51.262;17.058;2023-05-07T02:31:07;14.57;;;9.88;;
51560;SDS011;37654;51.262;17.058;2023-05-07T02:33:33;16.55;;;9.70;;
51560;SDS011;37654;51.262;17.058;2023-05-07T02:36:09;16.73;;;10.32;;
51560;SDS011;37654;51.262;17.058;2023-05-07T02:38:35;16.85;;;11.25;;
51560;SDS011;37654;51.262;17.058;2023-05-07T02:41:01;15.80;;;10.30;;
51560;SDS011;37654;51.262;17.058;2023-05-07T02:43:26;13.98;;;10.85;;
51560;SDS011;37654;51.262;17.058;2023-05-07T02:48:33;12.60;;;8.95;;
51560;SDS011;37654;51.262;17.058;2023-05-07T02:50:59;14.50;;;8.68;;
51560;SDS011;37654;51.262;17.058;2023-05-07T02:53:25;13.13;;;8.80;;
51560;SDS011;37654;51.262;17.058;2023-05-07T02:55:54;15.48;;;10.02;;
51560;SDS011;37654;51.262;17.058;2023-05-07T02:58:21;14.27;;;9.30;;
51560;SDS011;37654;51.262;17.058;2023-05-07T03:00:47;15.98;;;9.73;;
51560;SDS011;37654;51.262;17.058;2023-05-07T03:03:13;14.43;;;9.88;;
51560;SDS011;37654;51.262;17.058;2023-05-07T03:05:39;18.52;;;10.15;;
51560;SDS011;37654;51.262;17.058;2023-05-07T03:08:04;13.05;;;8.93;;
51560;SDS011;37654;51.262;17.058;2023-05-07T03:10:30;14.15;;;9.20;;
51560;SDS011;37654;51.262;17.058;2023-05-07T03:12:55;18.27;;;10.45;;
51560;SDS011;37654;51.262;17.058;2023-05-07T03:15:21;16.27;;;9.50;;
51560;SDS011;37654;51.262;17.058;2023-05-07T03:17:47;21.52;;;12.00;;
51560;SDS011;37654;51.262;17.058;2023-05-07T03:20:12;16.52;;;10.10;;
51560;SDS011;37654;51.262;17.058;2023-05-07T03:22:38;15.75;;;10.80;;
51560;SDS011;37654;51.262;17.058;2023-05-07T03:25:04;16.27;;;11.30;;
51560;SDS011;37654;51.262;17.058;2023-05-07T03:27:30;14.95;;;9.77;;
51560;SDS011;37654;51.262;17.058;2023-05-07T03:29:56;13.77;;;10.48;;
51560;SDS011;37654;51.262;17.058;2023-05-07T03:32:21;14.45;;;9.32;;
51560;SDS011;37654;51.262;17.058;2023-05-07T03:34:46;15.45;;;8.95;;
51560;SDS011;37654;51.262;17.058;2023-05-07T03:37:12;15.75;;;10.25;;
51560;SDS011;37654;51.262;17.058;2023-05-07T03:39:37;12.73;;;10.20;;
51560;SDS011;37654;51.262;17.058;2023-05-07T03:42:03;17.13;;;9.98;;
51560;SDS011;37654;51.262;17.058;2023-05-07T03:44:28;13.45;;;9.50;;
51560;SDS011;37654;51.262;17.058;2023-05-07T03:46:54;17.30;;;9.02;;
51560;SDS011;37654;51.262;17.058;2023-05-07T03:49:20;17.83;;;9.18;;
51560;SDS011;37654;51.262;17.058;2023-05-07T03:51:46;13.10;;;8.93;;
51560;SDS011;37654;51.262;17.058;2023-05-07T03:54:11;12.73;;;8.25;;
51560;SDS011;37654;51.262;17.058;2023-05-07T03:56:36;14.90;;;8.18;;
51560;SDS011;37654;51.262;17.058;2023-05-07T03:59:02;12.00;;;8.57;;
51560;SDS011;37654;51.262;17.058;2023-05-07T04:01:28;11.82;;;9.15;;
51560;SDS011;37654;51.262;17.058;2023-05-07T04:03:53;14.40;;;8.65;;
51560;SDS011;37654;51.262;17.058;2023-05-07T04:06:19;12.57;;;8.10;;
51560;SDS011;37654;51.262;17.058;2023-05-07T04:08:44;11.02;;;7.88;;
51560;SDS011;37654;51.262;17.058;2023-05-07T04:11:09;10.73;;;7.80;;
51560;SDS011;37654;51.262;17.058;2023-05-07T04:13:35;10.10;;;7.13;;
51560;SDS011;37654;51.262;17.058;2023-05-07T04:16:01;10.45;;;7.82;;
51560;SDS011;37654;51.262;17.058;2023-05-07T04:18:28;11.52;;;7.57;;
51560;SDS011;37654;51.262;17.058;2023-05-07T04:20:53;11.75;;;7.68;;
51560;SDS011;37654;51.262;17.058;2023-05-07T04:23:19;10.23;;;7.45;;
51560;SDS011;37654;51.262;17.058;2023-05-07T04:25:44;11.18;;;7.53;;
51560;SDS011;37654;51.262;17.058;2023-05-07T04:28:10;11.77;;;7.53;;
51560;SDS011;37654;51.262;17.058;2023-05-07T04:30:36;9.02;;;6.90;;
51560;SDS011;37654;51.262;17.058;2023-05-07T04:33:02;11.98;;;7.03;;
51560;SDS011;37654;51.262;17.058;2023-05-07T04:35:27;10.05;;;6.20;;
51560;SDS011;37654;51.262;17.058;2023-05-07T04:37:53;9.23;;;6.35;;
51560;SDS011;37654;51.262;17.058;2023-05-07T04:40:18;11.07;;;7.50;;
51560;SDS011;37654;51.262;17.058;2023-05-07T04:42:44;13.32;;;6.75;;
51560;SDS011;37654;51.262;17.058;2023-05-07T04:45:10;10.23;;;6.57;;
51560;SDS011;37654;51.262;17.058;2023-05-07T04:47:35;9.80;;;6.30;;
51560;SDS011;37654;51.262;17.058;2023-05-07T04:50:01;9.18;;;6.15;;
51560;SDS011;37654;51.262;17.058;2023-05-07T04:52:27;14.85;;;6.32;;
51560;SDS011;37654;51.262;17.058;2023-05-07T04:54:52;10.50;;;6.20;;
51560;SDS011;37654;51.262;17.058;2023-05-07T04:57:17;10.20;;;6.85;;
51560;SDS011;37654;51.262;17.058;2023-05-07T04:59:43;7.88;;;5.35;;
51560;SDS011;37654;51.262;17.058;2023-05-07T05:02:12;7.70;;;5.13;;
51560;SDS011;37654;51.262;17.058;2023-05-07T05:04:37;11.50;;;6.20;;
51560;SDS011;37654;51.262;17.058;2023-05-07T05:07:03;6.65;;;4.55;;
51560;SDS011;37654;51.262;17.058;2023-05-07T05:09:29;9.85;;;6.05;;
51560;SDS011;37654;51.262;17.058;2023-05-07T05:11:55;10.30;;;6.15;;
51560;SDS011;37654;51.262;17.058;2023-05-07T05:14:20;7.45;;;4.50;;
51560;SDS011;37654;51.262;17.058;2023-05-07T05:16:46;5.82;;;4.07;;
51560;SDS011;37654;51.262;17.058;2023-05-07T05:19:11;8.45;;;4.95;;
51560;SDS011;37654;51.262;17.058;2023-05-07T05:21:37;7.43;;;4.97;;
51560;SDS011;37654;51.262;17.058;2023-05-07T05:24:02;6.68;;;4.43;;
51560;SDS011;37654;51.262;17.058;2023-05-07T05:26:28;8.52;;;4.97;;
51560;SDS011;37654;51.262;17.058;2023-05-07T05:28:53;10.63;;;5.05;;
51560;SDS011;37654;51.262;17.058;2023-05-07T05:31:18;9.65;;;5.55;;
51560;SDS011;37654;51.262;17.058;2023-05-07T05:33:44;7.63;;;5.18;;
51560;SDS011;37654;51.262;17.058;2023-05-07T05:36:09;7.63;;;4.90;;
51560;SDS011;37654;51.262;17.058;2023-05-07T05:38:36;7.22;;;4.75;;
51560;SDS011;37654;51.262;17.058;2023-05-07T05:41:01;6.50;;;4.40;;
51560;SDS011;37654;51.262;17.058;2023-05-07T05:43:27;6.15;;;4.60;;
51560;SDS011;37654;51.262;17.058;2023-05-07T05:45:52;6.85;;;4.97;;
51560;SDS011;37654;51.262;17.058;2023-05-07T05:48:18;8.38;;;6.07;;
51560;SDS011;37654;51.262;17.058;2023-05-07T05:50:43;8.05;;;5.43;;
51560;SDS011;37654;51.262;17.058;2023-05-07T05:53:08;8.35;;;5.82;;
51560;SDS011;37654;51.262;17.058;2023-05-07T05:55:34;8.32;;;6.10;;
51560;SDS011;37654;51.262;17.058;2023-05-07T05:58:02;7.63;;;5.97;;
51560;SDS011;37654;51.262;17.058;2023-05-07T06:00:28;8.05;;;5.32;;
51560;SDS011;37654;51.262;17.058;2023-05-07T06:02:54;9.32;;;6.50;;
51560;SDS011;37654;51.262;17.058;2023-05-07T06:05:19;9.65;;;6.05;;
51560;SDS011;37654;51.262;17.058;2023-05-07T06:07:45;9.70;;;6.20;;
51560;SDS011;37654;51.262;17.058;2023-05-07T06:10:10;9.32;;;6.25;;
51560;SDS011;37654;51.262;17.058;2023-05-07T06:12:36;8.27;;;6.03;;
51560;SDS011;37654;51.262;17.058;2023-05-07T06:15:01;8.35;;;5.68;;
51560;SDS011;37654;51.262;17.058;2023-05-07T06:17:27;7.65;;;4.95;;
51560;SDS011;37654;51.262;17.058;2023-05-07T06:19:52;7.18;;;5.50;;
51560;SDS011;37654;51.262;17.058;2023-05-07T06:22:18;8.13;;;5.35;;
51560;SDS011;37654;51.262;17.058;2023-05-07T06:24:43;8.02;;;4.72;;
51560;SDS011;37654;51.262;17.058;2023-05-07T06:27:09;7.63;;;4.65;;
51560;SDS011;37654;51.262;17.058;2023-05-07T06:29:34;7.05;;;4.05;;
51560;SDS011;37654;51.262;17.058;2023-05-07T06:32:12;5.35;;;4.18;;
51560;SDS011;37654;51.262;17.058;2023-05-07T06:34:39;6.68;;;4.15;;
51560;SDS011;37654;51.262;17.058;2023-05-07T06:37:05;7.63;;;4.03;;
51560;SDS011;37654;51.262;17.058;2023-05-07T06:39:31;6.13;;;4.05;;
51560;SDS011;37654;51.262;17.058;2023-05-07T06:41:57;5.22;;;3.83;;
51560;SDS011;37654;51.262;17.058;2023-05-07T06:44:23;3.72;;;2.83;;
51560;SDS011;37654;51.262;17.058;2023-05-07T06:46:48;4.50;;;3.28;;
51560;SDS011;37654;51.262;17.058;2023-05-07T06:49:14;4.40;;;3.28;;
51560;SDS011;37654;51.262;17.058;2023-05-07T06:51:40;5.18;;;3.47;;
51560;SDS011;37654;51.262;17.058;2023-05-07T06:54:05;6.25;;;3.90;;
51560;SDS011;37654;51.262;17.058;2023-05-07T06:56:31;7.70;;;4.13;;
51560;SDS011;37654;51.262;17.058;2023-05-07T06:58:57;6.20;;;4.18;;
51560;SDS011;37654;51.262;17.058;2023-05-07T07:01:22;5.03;;;3.90;;
51560;SDS011;37654;51.262;17.058;2023-05-07T07:03:48;5.28;;;4.50;;
51560;SDS011;37654;51.262;17.058;2023-05-07T07:06:13;10.05;;;5.25;;
51560;SDS011;37654;51.262;17.058;2023-05-07T07:08:39;9.90;;;6.63;;
51560;SDS011;37654;51.262;17.058;2023-05-07T07:11:05;5.90;;;4.38;;
51560;SDS011;37654;51.262;17.058;2023-05-07T07:13:31;6.90;;;5.03;;
51560;SDS011;37654;51.262;17.058;2023-05-07T07:15:56;7.57;;;5.22;;
51560;SDS011;37654;51.262;17.058;2023-05-07T07:18:21;6.72;;;4.82;;
51560;SDS011;37654;51.262;17.058;2023-05-07T07:20:47;5.43;;;4.10;;
51560;SDS011;37654;51.262;17.058;2023-05-07T07:23:13;8.75;;;4.72;;
51560;SDS011;37654;51.262;17.058;2023-05-07T07:25:38;6.63;;;4.43;;
51560;SDS011;37654;51.262;17.058;2023-05-07T07:28:03;5.30;;;3.78;;
51560;SDS011;37654;51.262;17.058;2023-05-07T07:30:30;8.55;;;4.32;;
51560;SDS011;37654;51.262;17.058;2023-05-07T07:32:55;6.70;;;3.70;;
51560;SDS011;37654;51.262;17.058;2023-05-07T07:35:25;7.30;;;4.10;;
51560;SDS011;37654;51.262;17.058;2023-05-07T07:37:50;10.23;;;4.63;;
51560;SDS011;37654;51.262;17.058;2023-05-07T07:40:16;5.93;;;4.38;;
51560;SDS011;37654;51.262;17.058;2023-05-07T07:42:41;8.65;;;4.55;;
51560;SDS011;37654;51.262;17.058;2023-05-07T07:45:07;5.85;;;4.38;;
51560;SDS011;37654;51.262;17.058;2023-05-07T07:47:33;8.43;;;4.70;;
51560;SDS011;37654;51.262;17.058;2023-05-07T07:49:58;6.80;;;4.30;;
51560;SDS011;37654;51.262;17.058;2023-05-07T07:52:25;7.75;;;4.50;;
51560;SDS011;37654;51.262;17.058;2023-05-07T07:54:50;10.23;;;5.28;;
51560;SDS011;37654;51.262;17.058;2023-05-07T07:57:16;6.35;;;5.07;;
51560;SDS011;37654;51.262;17.058;2023-05-07T07:59:41;9.32;;;5.45;;
51560;SDS011;37654;51.262;17.058;2023-05-07T08:02:08;7.05;;;5.13;;
51560;SDS011;37654;51.262;17.058;2023-05-07T08:04:34;7.75;;;5.53;;
51560;SDS011;37654;51.262;17.058;2023-05-07T08:07:00;11.40;;;6.97;;
51560;SDS011;37654;51.262;17.058;2023-05-07T08:09:25;10.23;;;6.35;;
51560;SDS011;37654;51.262;17.058;2023-05-07T08:11:51;9.50;;;5.50;;
51560;SDS011;37654;51.262;17.058;2023-05-07T08:14:17;9.50;;;5.13;;
51560;SDS011;37654;51.262;17.058;2023-05-07T08:16:42;10.23;;;5.50;;
51560;SDS011;37654;51.262;17.058;2023-05-07T08:19:08;9.10;;;5.43;;
51560;SDS011;37654;51.262;17.058;2023-05-07T08:21:38;5.95;;;4.07;;
51560;SDS011;37654;51.262;17.058;2023-05-07T08:24:04;5.45;;;4.35;;
51560;SDS011;37654;51.262;17.058;2023-05-07T08:26:29;5.95;;;4.40;;
51560;SDS011;37654;51.262;17.058;2023-05-07T08:28:55;9.35;;;4.88;;
51560;SDS011;37654;51.262;17.058;2023-05-07T08:31:20;9.43;;;4.53;;
51560;SDS011;37654;51.262;17.058;2023-05-07T08:33:46;7.40;;;4.18;;
51560;SDS011;37654;51.262;17.058;2023-05-07T08:36:11;7.53;;;4.45;;
51560;SDS011;37654;51.262;17.058;2023-05-07T08:38:37;6.25;;;4.40;;
51560;SDS011;37654;51.262;17.058;2023-05-07T08:41:03;8.15;;;4.57;;
51560;SDS011;37654;51.262;17.058;2023-05-07T08:43:28;11.15;;;5.55;;
51560;SDS011;37654;51.262;17.058;2023-05-07T08:45:57;8.30;;;5.05;;
51560;SDS011;37654;51.262;17.058;2023-05-07T08:48:27;6.15;;;4.40;;
51560;SDS011;37654;51.262;17.058;2023-05-07T08:50:55;6.50;;;5.00;;
51560;SDS011;37654;51.262;17.058;2023-05-07T08:53:20;6.47;;;4.63;;
51560;SDS011;37654;51.262;17.058;2023-05-07T08:55:46;12.88;;;6.70;;
51560;SDS011;37654;51.262;17.058;2023-05-07T08:58:12;7.70;;;5.03;;
51560;SDS011;37654;51.262;17.058;2023-05-07T09:00:38;11.48;;;5.68;;
51560;SDS011;37654;51.262;17.058;2023-05-07T09:03:05;6.80;;;4.95;;
51560;SDS011;37654;51.262;17.058;2023-05-07T09:05:30;12.15;;;4.70;;
51560;SDS011;37654;51.262;17.058;2023-05-07T09:07:58;7.32;;;4.55;;
51560;SDS011;37654;51.262;17.058;2023-05-07T09:10:25;7.20;;;4.80;;
51560;SDS011;37654;51.262;17.058;2023-05-07T09:12:51;5.78;;;4.15;;
51560;SDS011;37654;51.262;17.058;2023-05-07T09:15:17;6.38;;;4.50;;
51560;SDS011;37654;51.262;17.058;2023-05-07T09:17:43;7.25;;;4.18;;
51560;SDS011;37654;51.262;17.058;2023-05-07T09:20:09;8.20;;;4.07;;
51560;SDS011;37654;51.262;17.058;2023-05-07T09:22:38;4.93;;;3.78;;
51560;SDS011;37654;51.262;17.058;2023-05-07T09:25:04;5.30;;;3.78;;
51560;SDS011;37654;51.262;17.058;2023-05-07T09:27:34;8.98;;;3.67;;
51560;SDS011;37654;51.262;17.058;2023-05-07T09:30:02;5.90;;;3.58;;
51560;SDS011;37654;51.262;17.058;2023-05-07T09:32:34;6.90;;;4.25;;
51560;SDS011;37654;51.262;17.058;2023-05-07T09:35:00;5.88;;;3.88;;
51560;SDS011;37654;51.262;17.058;2023-05-07T09:37:26;9.32;;;5.47;;
51560;SDS011;37654;51.262;17.058;2023-05-07T09:39:52;6.55;;;3.97;;
51560;SDS011;37654;51.262;17.058;2023-05-07T09:42:22;6.85;;;4.18;;
51560;SDS011;37654;51.262;17.058;2023-05-07T09:44:48;6.10;;;4.35;;
51560;SDS011;37654;51.262;17.058;2023-05-07T09:47:15;7.47;;;4.70;;
51560;SDS011;37654;51.262;17.058;2023-05-07T09:49:46;5.05;;;3.80;;
51560;SDS011;37654;51.262;17.058;2023-05-07T09:52:13;5.57;;;4.00;;
51560;SDS011;37654;51.262;17.058;2023-05-07T09:54:39;6.68;;;4.68;;
51560;SDS011;37654;51.262;17.058;2023-05-07T09:57:08;4.68;;;3.88;;
51560;SDS011;37654;51.262;17.058;2023-05-07T09:59:36;6.03;;;3.78;;
51560;SDS011;37654;51.262;17.058;2023-05-07T10:02:03;5.18;;;3.47;;
51560;SDS011;37654;51.262;17.058;2023-05-07T10:04:30;5.85;;;3.13;;
51560;SDS011;37654;51.262;17.058;2023-05-07T10:06:57;5.38;;;3.60;;
51560;SDS011;37654;51.262;17.058;2023-05-07T10:09:23;10.90;;;4.72;;
51560;SDS011;37654;51.262;17.058;2023-05-07T10:11:50;4.90;;;3.30;;
51560;SDS011;37654;51.262;17.058;2023-05-07T10:14:16;6.22;;;3.63;;
51560;SDS011;37654;51.262;17.058;2023-05-07T10:16:42;4.18;;;3.50;;
51560;SDS011;37654;51.262;17.058;2023-05-07T10:19:08;5.13;;;3.72;;
51560;SDS011;37654;51.262;17.058;2023-05-07T10:21:37;5.13;;;3.53;;
51560;SDS011;37654;51.262;17.058;2023-05-07T10:24:16;6.70;;;3.72;;
51560;SDS011;37654;51.262;17.058;2023-05-07T10:26:48;4.60;;;3.65;;
51560;SDS011;37654;51.262;17.058;2023-05-07T10:29:17;4.60;;;3.00;;
51560;SDS011;37654;51.262;17.058;2023-05-07T10:34:23;4.97;;;3.05;;
51560;SDS011;37654;51.262;17.058;2023-05-07T10:36:51;7.60;;;3.92;;
51560;SDS011;37654;51.262;17.058;2023-05-07T10:39:17;5.10;;;3.60;;
51560;SDS011;37654;51.262;17.058;2023-05-07T10:41:46;10.45;;;4.03;;
51560;SDS011;37654;51.262;17.058;2023-05-07T10:44:11;5.05;;;3.75;;
51560;SDS011;37654;51.262;17.058;2023-05-07T10:47:03;3.47;;;2.85;;
51560;SDS011;37654;51.262;17.058;2023-05-07T10:49:30;4.90;;;3.13;;
51560;SDS011;37654;51.262;17.058;2023-05-07T10:54:41;5.43;;;2.90;;
51560;SDS011;37654;51.262;17.058;2023-05-07T10:59:56;5.28;;;3.25;;
51560;SDS011;37654;51.262;17.058;2023-05-07T11:02:22;4.50;;;3.00;;
51560;SDS011;37654;51.262;17.058;2023-05-07T11:05:30;6.85;;;3.65;;
51560;SDS011;37654;51.262;17.058;2023-05-07T11:13:14;5.28;;;2.83;;
51560;SDS011;37654;51.262;17.058;2023-05-07T11:15:43;2.83;;;2.08;;
51560;SDS011;37654;51.262;17.058;2023-05-07T11:18:10;6.20;;;3.88;;
51560;SDS011;37654;51.262;17.058;2023-05-07T11:26:04;5.75;;;2.90;;
51560;SDS011;37654;51.262;17.058;2023-05-07T11:28:30;5.03;;;3.15;;
51560;SDS011;37654;51.262;17.058;2023-05-07T11:30:56;3.53;;;2.47;;
51560;SDS011;37654;51.262;17.058;2023-05-07T11:33:23;4.03;;;2.88;;
51560;SDS011;37654;51.262;17.058;2023-05-07T11:35:50;4.22;;;2.90;;
51560;SDS011;37654;51.262;17.058;2023-05-07T11:38:18;3.95;;;3.08;;
51560;SDS011;37654;51.262;17.058;2023-05-07T11:40:51;3.45;;;2.42;;
51560;SDS011;37654;51.262;17.058;2023-05-07T11:43:20;6.68;;;3.35;;
51560;SDS011;37654;51.262;17.058;2023-05-07T11:45:46;4.28;;;3.30;;
51560;SDS011;37654;51.262;17.058;2023-05-07T11:48:12;5.63;;;3.05;;
51560;SDS011;37654;51.262;17.058;2023-05-07T11:53:24;3.17;;;2.60;;
51560;SDS011;37654;51.262;17.058;2023-05-07T11:55:57;3.10;;;2.55;;
51560;SDS011;37654;51.262;17.058;2023-05-07T11:58:23;4.47;;;2.78;;
51560;SDS011;37654;51.262;17.058;2023-05-07T12:00:53;4.22;;;2.72;;
51560;SDS011;37654;51.262;17.058;2023-05-07T12:03:19;6.30;;;3.25;;
51560;SDS011;37654;51.262;17.058;2023-05-07T12:05:45;3.63;;;2.83;;
51560;SDS011;37654;51.262;17.058;2023-05-07T12:08:15;3.95;;;2.88;;
51560;SDS011;37654;51.262;17.058;2023-05-07T12:10:45;3.85;;;2.80;;
51560;SDS011;37654;51.262;17.058;2023-05-07T12:13:16;3.67;;;2.97;;
51560;SDS011;37654;51.262;17.058;2023-05-07T12:15:43;7.25;;;3.67;;
51560;SDS011;37654;51.262;17.058;2023-05-07T12:18:08;7.43;;;3.28;;
51560;SDS011;37654;51.262;17.058;2023-05-07T12:20:36;5.15;;;3.20;;
51560;SDS011;37654;51.262;17.058;2023-05-07T12:23:01;4.50;;;3.00;;
51560;SDS011;37654;51.262;17.058;2023-05-07T12:25:31;3.17;;;2.47;;
51560;SDS011;37654;51.262;17.058;2023-05-07T12:27:56;4.35;;;3.25;;
51560;SDS011;37654;51.262;17.058;2023-05-07T12:30:24;4.07;;;2.90;;
51560;SDS011;37654;51.262;17.058;2023-05-07T12:32:55;5.60;;;3.30;;
51560;SDS011;37654;51.262;17.058;2023-05-07T12:35:28;3.55;;;2.85;;
51560;SDS011;37654;51.262;17.058;2023-05-07T12:37:54;4.68;;;3.10;;
51560;SDS011;37654;51.262;17.058;2023-05-07T12:40:33;4.65;;;3.22;;
51560;SDS011;37654;51.262;17.058;2023-05-07T12:43:01;4.85;;;3.60;;
51560;SDS011;37654;51.262;17.058;2023-05-07T12:45:27;4.85;;;3.53;;
51560;SDS011;37654;51.262;17.058;2023-05-07T12:47:52;4.30;;;2.80;;
51560;SDS011;37654;51.262;17.058;2023-05-07T12:50:17;7.43;;;3.65;;
51560;SDS011;37654;51.262;17.058;2023-05-07T12:52:49;5.20;;;3.25;;
51560;SDS011;37654;51.262;17.058;2023-05-07T12:55:15;5.25;;;3.70;;
51560;SDS011;37654;51.262;17.058;2023-05-07T12:57:42;4.63;;;3.58;;
51560;SDS011;37654;51.262;17.058;2023-05-07T13:00:10;6.32;;;3.40;;
51560;SDS011;37654;51.262;17.058;2023-05-07T13:02:40;4.38;;;3.70;;
51560;SDS011;37654;51.262;17.058;2023-05-07T13:05:06;6.85;;;3.70;;
51560;SDS011;37654;51.262;17.058;2023-05-07T13:07:32;6.30;;;3.85;;
51560;SDS011;37654;51.262;17.058;2023-05-07T13:09:58;7.05;;;3.60;;
51560;SDS011;37654;51.262;17.058;2023-05-07T13:12:23;5.10;;;3.42;;
51560;SDS011;37654;51.262;17.058;2023-05-07T13:14:48;10.07;;;4.03;;
51560;SDS011;37654;51.262;17.058;2023-05-07T13:17:14;7.32;;;3.45;;
51560;SDS011;37654;51.262;17.058;2023-05-07T13:19:39;5.20;;;3.78;;
51560;SDS011;37654;51.262;17.058;2023-05-07T13:22:05;4.65;;;3.97;;
51560;SDS011;37654;51.262;17.058;2023-05-07T13:24:30;5.25;;;3.90;;
51560;SDS011;37654;51.262;17.058;2023-05-07T13:26:56;8.07;;;4.10;;
51560;SDS011;37654;51.262;17.058;2023-05-07T13:29:21;7.15;;;3.78;;
51560;SDS011;37654;51.262;17.058;2023-05-07T13:31:54;6.28;;;4.22;;
51560;SDS011;37654;51.262;17.058;2023-05-07T13:34:19;4.20;;;3.10;;
51560;SDS011;37654;51.262;17.058;2023-05-07T13:36:45;5.80;;;3.50;;
51560;SDS011;37654;51.262;17.058;2023-05-07T13:39:10;4.97;;;3.53;;
51560;SDS011;37654;51.262;17.058;2023-05-07T13:41:36;5.43;;;3.78;;
51560;SDS011;37654;51.262;17.058;2023-05-07T13:44:01;5.05;;;3.65;;
51560;SDS011;37654;51.262;17.058;2023-05-07T13:46:27;7.05;;;4.13;;
51560;SDS011;37654;51.262;17.058;2023-05-07T13:48:52;6.30;;;4.25;;
51560;SDS011;37654;51.262;17.058;2023-05-07T13:51:18;5.85;;;3.60;;
51560;SDS011;37654;51.262;17.058;2023-05-07T13:53:43;4.72;;;3.58;;
51560;SDS011;37654;51.262;17.058;2023-05-07T13:56:09;5.50;;;3.47;;
51560;SDS011;37654;51.262;17.058;2023-05-07T13:58:34;5.63;;;3.60;;
51560;SDS011;37654;51.262;17.058;2023-05-07T14:01:01;6.20;;;4.07;;
51560;SDS011;37654;51.262;17.058;2023-05-07T14:03:26;6.78;;;4.45;;
51560;SDS011;37654;51.262;17.058;2023-05-07T14:05:52;8.25;;;3.58;;
51560;SDS011;37654;51.262;17.058;2023-05-07T14:08:17;7.50;;;4.07;;
51560;SDS011;37654;51.262;17.058;2023-05-07T14:10:45;3.42;;;3.08;;
51560;SDS011;37654;51.262;17.058;2023-05-07T14:13:11;4.75;;;3.40;;
51560;SDS011;37654;51.262;17.058;2023-05-07T14:15:36;6.53;;;3.88;;
51560;SDS011;37654;51.262;17.058;2023-05-07T14:18:02;5.47;;;3.47;;
51560;SDS011;37654;51.262;17.058;2023-05-07T14:20:28;6.00;;;3.83;;
51560;SDS011;37654;51.262;17.058;2023-05-07T14:22:55;5.28;;;2.97;;
51560;SDS011;37654;51.262;17.058;2023-05-07T14:25:20;7.60;;;3.70;;
51560;SDS011;37654;51.262;17.058;2023-05-07T14:27:46;4.68;;;2.97;;
51560;SDS011;37654;51.262;17.058;2023-05-07T14:30:12;5.68;;;3.53;;
51560;SDS011;37654;51.262;17.058;2023-05-07T14:32:37;5.75;;;3.10;;
51560;SDS011;37654;51.262;17.058;2023-05-07T14:35:03;7.82;;;3.65;;
51560;SDS011;37654;51.262;17.058;2023-05-07T14:37:29;5.97;;;3.25;;
51560;SDS011;37654;51.262;17.058;2023-05-07T14:39:54;4.35;;;3.10;;
51560;SDS011;37654;51.262;17.058;2023-05-07T14:42:20;4.72;;;3.20;;
51560;SDS011;37654;51.262;17.058;2023-05-07T14:44:45;5.00;;;3.78;;
51560;SDS011;37654;51.262;17.058;2023-05-07T14:47:12;6.07;;;3.45;;